sensor_id;sensor_type;location;lat;lon;timestamp;P1;durP1;ratioP1;P2;durP2;ratioP2
9934;SDS011;5006;41.828;23.478;2022-08-21T00:01:02;6.25;;;3.42;;
9934;SDS011;5006;41.828;23.478;2022-08-21T00:02:13;8.80;;;3.00;;
9934;SDS011;5006;41.828;23.478;2022-08-21T00:03:19;6.32;;;2.95;;
9934;SDS011;5006;41.828;23.478;2022-08-21T00:04:25;5.85;;;2.83;;
9934;SDS011;5006;41.828;23.478;2022-08-21T00:05:30;8.65;;;3.05;;
9934;SDS011;5006;41.828;23.478;2022-08-21T00:06:37;7.35;;;2.95;;
9934;SDS011;5006;41.828;23.478;2022-08-21T00:07:42;5.45;;;3.08;;
9934;SDS011;5006;41.828;23.478;2022-08-21T00:08:48;5.85;;;2.90;;
9934;SDS011;5006;41.828;23.478;2022-08-21T00:09:54;7.93;;;2.92;;
9934;SDS011;5006;41.828;23.478;2022-08-21T00:11:00;6.38;;;3.00;;
9934;SDS011;5006;41.828;23.478;2022-08-21T00:12:05;4.65;;;2.67;;
9934;SDS011;5006;41.828;23.478;2022-08-21T00:13:12;3.70;;;2.67;;
9934;SDS011;5006;41.828;23.478;2022-08-21T00:14:17;6.60;;;2.85;;
9934;SDS011;5006;41.828;23.478;2022-08-21T00:15:25;5.07;;;2.72;;
9934;SDS011;5006;41.828;23.478;2022-08-21T00:16:33;6.68;;;2.72;;
9934;SDS011;5006;41.828;23.478;2022-08-21T00:17:39;5.80;;;2.85;;
9934;SDS011;5006;41.828;23.478;2022-08-21T00:18:44;4.88;;;2.83;;
9934;SDS011;5006;41.828;23.478;2022-08-21T00:19:50;6.25;;;3.10;;
9934;SDS011;5006;41.828;23.478;2022-08-21T00:20:55;7.22;;;3.30;;
9934;SDS011;5006;41.828;23.478;2022-08-21T00:22:01;8.77;;;3.25;;
9934;SDS011;5006;41.828;23.478;2022-08-21T00:23:05;7.55;;;2.80;;
9934;SDS011;5006;41.828;23.478;2022-08-21T00:24:11;7.50;;;3.30;;
9934;SDS011;5006;41.828;23.478;2022-08-21T00:25:18;9.60;;;3.13;;
9934;SDS011;5006;41.828;23.478;2022-08-21T00:26:25;8.23;;;3.85;;
9934;SDS011;5006;41.828;23.478;2022-08-21T00:27:30;10.18;;;5.00;;
9934;SDS011;5006;41.828;23.478;2022-08-21T00:28:36;12.57;;;7.15;;
9934;SDS011;5006;41.828;23.478;2022-08-21T00:29:41;11.15;;;6.93;;
9934;SDS011;5006;41.828;23.478;2022-08-21T00:30:47;7.22;;;5.07;;
9934;SDS011;5006;41.828;23.478;2022-08-21T00:31:53;11.82;;;5.72;;
9934;SDS011;5006;41.828;23.478;2022-08-21T00:32:58;10.63;;;5.80;;
9934;SDS011;5006;41.828;23.478;2022-08-21T00:34:03;6.72;;;4.70;;
9934;SDS011;5006;41.828;23.478;2022-08-21T00:35:12;6.75;;;5.20;;
9934;SDS011;5006;41.828;23.478;2022-08-21T00:36:19;7.60;;;5.43;;
9934;SDS011;5006;41.828;23.478;2022-08-21T00:37:25;7.07;;;5.32;;
9934;SDS011;5006;41.828;23.478;2022-08-21T00:38:29;9.15;;;5.97;;
9934;SDS011;5006;41.828;23.478;2022-08-21T00:39:35;8.70;;;5.57;;
9934;SDS011;5006;41.828;23.478;2022-08-21T00:40:42;9.98;;;5.97;;
9934;SDS011;5006;41.828;23.478;2022-08-21T00:41:50;9.15;;;5.30;;
9934;SDS011;5006;41.828;23.478;2022-08-21T00:42:55;10.32;;;5.88;;
9934;SDS011;5006;41.828;23.478;2022-08-21T00:44:01;6.50;;;5.55;;
9934;SDS011;5006;41.828;23.478;2022-08-21T00:45:08;8.85;;;5.40;;
9934;SDS011;5006;41.828;23.478;2022-08-21T00:46:15;9.88;;;6.10;;
9934;SDS011;5006;41.828;23.478;2022-08-21T00:47:20;8.80;;;5.03;;
9934;SDS011;5006;41.828;23.478;2022-08-21T00:48:26;9.00;;;5.47;;
9934;SDS011;5006;41.828;23.478;2022-08-21T00:49:32;13.35;;;5.72;;
9934;SDS011;5006;41.828;23.478;2022-08-21T00:50:40;7.88;;;5.75;;
9934;SDS011;5006;41.828;23.478;2022-08-21T00:51:51;8.43;;;5.28;;
9934;SDS011;5006;41.828;23.478;2022-08-21T00:53:00;10.23;;;5.30;;
9934;SDS011;5006;41.828;23.478;2022-08-21T00:54:07;8.00;;;4.60;;
9934;SDS011;5006;41.828;23.478;2022-08-21T00:55:15;7.60;;;4.80;;
9934;SDS011;5006;41.828;23.478;2022-08-21T00:56:22;9.43;;;5.25;;
9934;SDS011;5006;41.828;23.478;2022-08-21T00:57:30;8.45;;;5.25;;
9934;SDS011;5006;41.828;23.478;2022-08-21T00:58:39;14.25;;;5.90;;
9934;SDS011;5006;41.828;23.478;2022-08-21T00:59:48;7.07;;;5.28;;
9934;SDS011;5006;41.828;23.478;2022-08-21T01:00:55;7.60;;;5.55;;
9934;SDS011;5006;41.828;23.478;2022-08-21T01:02:02;7.45;;;5.00;;
9934;SDS011;5006;41.828;23.478;2022-08-21T01:03:09;6.72;;;5.20;;
9934;SDS011;5006;41.828;23.478;2022-08-21T01:04:17;8.88;;;5.30;;
9934;SDS011;5006;41.828;23.478;2022-08-21T01:05:24;10.13;;;5.50;;
9934;SDS011;5006;41.828;23.478;2022-08-21T01:06:31;9.70;;;6.18;;
9934;SDS011;5006;41.828;23.478;2022-08-21T01:07:36;10.52;;;5.93;;
9934;SDS011;5006;41.828;23.478;2022-08-21T01:08:43;7.70;;;6.30;;
9934;SDS011;5006;41.828;23.478;2022-08-21T01:09:48;7.93;;;5.70;;
9934;SDS011;5006;41.828;23.478;2022-08-21T01:10:55;8.02;;;5.93;;
9934;SDS011;5006;41.828;23.478;2022-08-21T01:12:04;7.38;;;6.20;;
9934;SDS011;5006;41.828;23.478;2022-08-21T01:13:12;11.30;;;6.38;;
9934;SDS011;5006;41.828;23.478;2022-08-21T01:14:20;9.15;;;6.40;;
9934;SDS011;5006;41.828;23.478;2022-08-21T01:15:27;11.82;;;6.45;;
9934;SDS011;5006;41.828;23.478;2022-08-21T01:16:37;9.57;;;6.63;;
9934;SDS011;5006;41.828;23.478;2022-08-21T01:17:45;10.10;;;6.50;;
9934;SDS011;5006;41.828;23.478;2022-08-21T01:18:50;10.40;;;6.85;;
9934;SDS011;5006;41.828;23.478;2022-08-21T01:19:57;8.18;;;6.40;;
9934;SDS011;5006;41.828;23.478;2022-08-21T01:21:07;9.55;;;6.57;;
9934;SDS011;5006;41.828;23.478;2022-08-21T01:22:15;6.40;;;5.50;;
9934;SDS011;5006;41.828;23.478;2022-08-21T01:23:19;6.93;;;5.68;;
9934;SDS011;5006;41.828;23.478;2022-08-21T01:24:26;9.68;;;6.72;;
9934;SDS011;5006;41.828;23.478;2022-08-21T01:25:31;7.38;;;5.45;;
9934;SDS011;5006;41.828;23.478;2022-08-21T01:26:38;9.60;;;6.10;;
9934;SDS011;5006;41.828;23.478;2022-08-21T01:27:44;12.25;;;7.43;;
9934;SDS011;5006;41.828;23.478;2022-08-21T01:28:52;10.23;;;7.03;;
9934;SDS011;5006;41.828;23.478;2022-08-21T01:30:03;9.27;;;6.60;;
9934;SDS011;5006;41.828;23.478;2022-08-21T01:31:13;7.28;;;6.03;;
9934;SDS011;5006;41.828;23.478;2022-08-21T01:32:22;7.93;;;6.20;;
9934;SDS011;5006;41.828;23.478;2022-08-21T01:33:28;8.48;;;6.35;;
9934;SDS011;5006;41.828;23.478;2022-08-21T01:34:33;9.30;;;6.25;;
9934;SDS011;5006;41.828;23.478;2022-08-21T01:35:40;8.18;;;6.88;;
9934;SDS011;5006;41.828;23.478;2022-08-21T01:36:47;7.97;;;6.47;;
9934;SDS011;5006;41.828;23.478;2022-08-21T01:37:53;10.13;;;6.90;;
9934;SDS011;5006;41.828;23.478;2022-08-21T01:38:58;10.23;;;8.05;;
9934;SDS011;5006;41.828;23.478;2022-08-21T01:40:04;8.73;;;7.25;;
9934;SDS011;5006;41.828;23.478;2022-08-21T01:41:10;8.55;;;7.15;;
9934;SDS011;5006;41.828;23.478;2022-08-21T01:42:16;12.88;;;7.00;;
9934;SDS011;5006;41.828;23.478;2022-08-21T01:43:21;8.95;;;6.70;;
9934;SDS011;5006;41.828;23.478;2022-08-21T01:44:26;7.28;;;5.88;;
9934;SDS011;5006;41.828;23.478;2022-08-21T01:45:32;9.23;;;6.15;;
9934;SDS011;5006;41.828;23.478;2022-08-21T01:46:38;8.25;;;5.80;;
9934;SDS011;5006;41.828;23.478;2022-08-21T01:47:43;8.45;;;5.60;;
9934;SDS011;5006;41.828;23.478;2022-08-21T01:48:49;10.55;;;6.10;;
9934;SDS011;5006;41.828;23.478;2022-08-21T01:49:54;7.82;;;6.07;;
9934;SDS011;5006;41.828;23.478;2022-08-21T01:51:00;9.25;;;6.28;;
9934;SDS011;5006;41.828;23.478;2022-08-21T01:52:07;8.20;;;5.93;;
9934;SDS011;5006;41.828;23.478;2022-08-21T01:53:13;8.40;;;5.88;;
9934;SDS011;5006;41.828;23.478;2022-08-21T01:54:19;7.95;;;6.60;;
9934;SDS011;5006;41.828;23.478;2022-08-21T01:55:25;7.20;;;6.50;;
9934;SDS011;5006;41.828;23.478;2022-08-21T01:56:35;10.20;;;7.30;;
9934;SDS011;5006;41.828;23.478;2022-08-21T01:57:43;11.07;;;7.85;;
9934;SDS011;5006;41.828;23.478;2022-08-21T01:58:48;13.40;;;7.75;;
9934;SDS011;5006;41.828;23.478;2022-08-21T01:59:54;11.52;;;8.57;;
9934;SDS011;5006;41.828;23.478;2022-08-21T02:00:59;12.43;;;7.75;;
9934;SDS011;5006;41.828;23.478;2022-08-21T02:02:06;14.35;;;8.15;;
9934;SDS011;5006;41.828;23.478;2022-08-21T02:03:12;13.13;;;7.25;;
9934;SDS011;5006;41.828;23.478;2022-08-21T02:04:17;10.77;;;7.85;;
9934;SDS011;5006;41.828;23.478;2022-08-21T02:05:22;8.15;;;7.35;;
9934;SDS011;5006;41.828;23.478;2022-08-21T02:06:28;9.07;;;7.47;;
9934;SDS011;5006;41.828;23.478;2022-08-21T02:07:37;9.50;;;7.10;;
9934;SDS011;5006;41.828;23.478;2022-08-21T02:08:43;8.40;;;6.70;;
9934;SDS011;5006;41.828;23.478;2022-08-21T02:09:49;13.07;;;7.82;;
9934;SDS011;5006;41.828;23.478;2022-08-21T02:10:54;11.85;;;8.40;;
9934;SDS011;5006;41.828;23.478;2022-08-21T02:11:59;9.90;;;7.65;;
9934;SDS011;5006;41.828;23.478;2022-08-21T02:13:05;10.75;;;8.05;;
9934;SDS011;5006;41.828;23.478;2022-08-21T02:14:11;13.88;;;9.48;;
9934;SDS011;5006;41.828;23.478;2022-08-21T02:15:19;10.68;;;9.68;;
9934;SDS011;5006;41.828;23.478;2022-08-21T02:16:24;10.25;;;9.15;;
9934;SDS011;5006;41.828;23.478;2022-08-21T02:17:36;12.70;;;8.98;;
9934;SDS011;5006;41.828;23.478;2022-08-21T02:18:42;10.40;;;8.32;;
9934;SDS011;5006;41.828;23.478;2022-08-21T02:19:48;8.95;;;7.47;;
9934;SDS011;5006;41.828;23.478;2022-08-21T02:20:54;8.18;;;7.38;;
9934;SDS011;5006;41.828;23.478;2022-08-21T02:22:00;8.32;;;6.95;;
9934;SDS011;5006;41.828;23.478;2022-08-21T02:23:06;8.13;;;6.30;;
9934;SDS011;5006;41.828;23.478;2022-08-21T02:24:13;8.57;;;6.10;;
9934;SDS011;5006;41.828;23.478;2022-08-21T02:25:19;6.63;;;5.60;;
9934;SDS011;5006;41.828;23.478;2022-08-21T02:26:27;6.80;;;5.15;;
9934;SDS011;5006;41.828;23.478;2022-08-21T02:27:36;6.78;;;5.38;;
9934;SDS011;5006;41.828;23.478;2022-08-21T02:28:44;12.63;;;5.57;;
9934;SDS011;5006;41.828;23.478;2022-08-21T02:29:50;8.13;;;5.03;;
9934;SDS011;5006;41.828;23.478;2022-08-21T02:30:55;6.97;;;5.47;;
9934;SDS011;5006;41.828;23.478;2022-08-21T02:32:02;8.70;;;5.15;;
9934;SDS011;5006;41.828;23.478;2022-08-21T02:33:07;7.35;;;4.88;;
9934;SDS011;5006;41.828;23.478;2022-08-21T02:34:15;7.07;;;4.35;;
9934;SDS011;5006;41.828;23.478;2022-08-21T02:35:20;5.93;;;4.68;;
9934;SDS011;5006;41.828;23.478;2022-08-21T02:36:27;7.50;;;4.25;;
9934;SDS011;5006;41.828;23.478;2022-08-21T02:37:32;6.82;;;4.97;;
9934;SDS011;5006;41.828;23.478;2022-08-21T02:38:40;9.40;;;5.40;;
9934;SDS011;5006;41.828;23.478;2022-08-21T02:39:45;7.07;;;5.45;;
9934;SDS011;5006;41.828;23.478;2022-08-21T02:40:51;8.35;;;5.50;;
9934;SDS011;5006;41.828;23.478;2022-08-21T02:41:57;8.07;;;5.28;;
9934;SDS011;5006;41.828;23.478;2022-08-21T02:43:04;7.15;;;5.30;;
9934;SDS011;5006;41.828;23.478;2022-08-21T02:44:11;7.20;;;5.07;;
9934;SDS011;5006;41.828;23.478;2022-08-21T02:45:16;7.53;;;5.57;;
9934;SDS011;5006;41.828;23.478;2022-08-21T02:46:23;7.15;;;5.38;;
9934;SDS011;5006;41.828;23.478;2022-08-21T02:47:27;7.85;;;5.03;;
9934;SDS011;5006;41.828;23.478;2022-08-21T02:48:34;7.70;;;5.55;;
9934;SDS011;5006;41.828;23.478;2022-08-21T02:49:39;9.90;;;6.53;;
9934;SDS011;5006;41.828;23.478;2022-08-21T02:50:45;8.20;;;6.32;;
9934;SDS011;5006;41.828;23.478;2022-08-21T02:51:52;7.20;;;6.50;;
9934;SDS011;5006;41.828;23.478;2022-08-21T02:52:58;7.60;;;6.30;;
9934;SDS011;5006;41.828;23.478;2022-08-21T02:54:04;8.82;;;6.05;;
9934;SDS011;5006;41.828;23.478;2022-08-21T02:55:10;9.32;;;8.38;;
9934;SDS011;5006;41.828;23.478;2022-08-21T02:56:15;10.65;;;9.13;;
9934;SDS011;5006;41.828;23.478;2022-08-21T02:57:22;10.85;;;8.27;;
9934;SDS011;5006;41.828;23.478;2022-08-21T02:58:30;9.80;;;8.77;;
9934;SDS011;5006;41.828;23.478;2022-08-21T02:59:37;10.57;;;7.85;;
9934;SDS011;5006;41.828;23.478;2022-08-21T03:00:43;11.85;;;8.40;;
9934;SDS011;5006;41.828;23.478;2022-08-21T03:01:50;10.27;;;7.45;;
9934;SDS011;5006;41.828;23.478;2022-08-21T03:02:55;10.32;;;8.63;;
9934;SDS011;5006;41.828;23.478;2022-08-21T03:04:02;14.13;;;9.80;;
9934;SDS011;5006;41.828;23.478;2022-08-21T03:05:07;10.82;;;9.15;;
9934;SDS011;5006;41.828;23.478;2022-08-21T03:06:15;10.30;;;9.13;;
9934;SDS011;5006;41.828;23.478;2022-08-21T03:07:23;12.90;;;9.88;;
9934;SDS011;5006;41.828;23.478;2022-08-21T03:08:27;13.88;;;11.00;;
9934;SDS011;5006;41.828;23.478;2022-08-21T03:09:34;14.18;;;12.40;;
9934;SDS011;5006;41.828;23.478;2022-08-21T03:10:40;57.35;;;15.65;;
9934;SDS011;5006;41.828;23.478;2022-08-21T03:11:47;15.30;;;11.68;;
9934;SDS011;5006;41.828;23.478;2022-08-21T03:12:54;17.33;;;13.18;;
9934;SDS011;5006;41.828;23.478;2022-08-21T03:13:59;33.17;;;14.13;;
9934;SDS011;5006;41.828;23.478;2022-08-21T03:15:05;14.32;;;12.40;;
9934;SDS011;5006;41.828;23.478;2022-08-21T03:16:13;14.45;;;11.07;;
9934;SDS011;5006;41.828;23.478;2022-08-21T03:17:19;13.13;;;11.50;;
9934;SDS011;5006;41.828;23.478;2022-08-21T03:18:24;12.20;;;10.90;;
9934;SDS011;5006;41.828;23.478;2022-08-21T03:19:30;11.48;;;10.27;;
9934;SDS011;5006;41.828;23.478;2022-08-21T03:20:36;11.55;;;10.32;;
9934;SDS011;5006;41.828;23.478;2022-08-21T03:21:42;197.93;;;18.75;;
9934;SDS011;5006;41.828;23.478;2022-08-21T03:22:48;433.45;;;37.42;;
9934;SDS011;5006;41.828;23.478;2022-08-21T03:23:54;12.70;;;11.40;;
9934;SDS011;5006;41.828;23.478;2022-08-21T03:25:00;19.00;;;12.50;;
9934;SDS011;5006;41.828;23.478;2022-08-21T03:26:06;40.38;;;15.20;;
9934;SDS011;5006;41.828;23.478;2022-08-21T03:27:13;20.05;;;14.18;;
9934;SDS011;5006;41.828;23.478;2022-08-21T03:28:20;14.23;;;12.73;;
9934;SDS011;5006;41.828;23.478;2022-08-21T03:29:27;18.98;;;14.98;;
9934;SDS011;5006;41.828;23.478;2022-08-21T03:30:32;11.05;;;9.95;;
9934;SDS011;5006;41.828;23.478;2022-08-21T03:31:38;9.55;;;8.68;;
9934;SDS011;5006;41.828;23.478;2022-08-21T03:32:44;9.70;;;8.80;;
9934;SDS011;5006;41.828;23.478;2022-08-21T03:33:49;10.00;;;8.60;;
9934;SDS011;5006;41.828;23.478;2022-08-21T03:34:58;9.48;;;8.57;;
9934;SDS011;5006;41.828;23.478;2022-08-21T03:36:06;9.60;;;8.50;;
9934;SDS011;5006;41.828;23.478;2022-08-21T03:37:13;9.20;;;7.72;;
9934;SDS011;5006;41.828;23.478;2022-08-21T03:38:19;11.05;;;8.48;;
9934;SDS011;5006;41.828;23.478;2022-08-21T03:39:24;9.63;;;8.43;;
9934;SDS011;5006;41.828;23.478;2022-08-21T03:40:31;8.68;;;7.88;;
9934;SDS011;5006;41.828;23.478;2022-08-21T03:41:35;8.68;;;7.03;;
9934;SDS011;5006;41.828;23.478;2022-08-21T03:42:41;8.68;;;7.13;;
9934;SDS011;5006;41.828;23.478;2022-08-21T03:43:46;7.93;;;7.05;;
9934;SDS011;5006;41.828;23.478;2022-08-21T03:44:52;7.97;;;7.10;;
9934;SDS011;5006;41.828;23.478;2022-08-21T03:45:57;12.27;;;7.60;;
9934;SDS011;5006;41.828;23.478;2022-08-21T03:47:03;7.70;;;6.80;;
9934;SDS011;5006;41.828;23.478;2022-08-21T03:48:09;9.07;;;6.78;;
9934;SDS011;5006;41.828;23.478;2022-08-21T03:49:14;7.45;;;6.70;;
9934;SDS011;5006;41.828;23.478;2022-08-21T03:50:20;7.65;;;6.80;;
9934;SDS011;5006;41.828;23.478;2022-08-21T03:51:25;8.02;;;7.32;;
9934;SDS011;5006;41.828;23.478;2022-08-21T03:52:31;7.18;;;6.57;;
9934;SDS011;5006;41.828;23.478;2022-08-21T03:53:35;8.35;;;7.50;;
9934;SDS011;5006;41.828;23.478;2022-08-21T03:54:41;7.95;;;7.15;;
9934;SDS011;5006;41.828;23.478;2022-08-21T03:55:48;8.18;;;7.38;;
9934;SDS011;5006;41.828;23.478;2022-08-21T03:56:56;8.15;;;7.30;;
9934;SDS011;5006;41.828;23.478;2022-08-21T03:58:01;6.80;;;6.20;;
9934;SDS011;5006;41.828;23.478;2022-08-21T03:59:08;8.00;;;7.20;;
9934;SDS011;5006;41.828;23.478;2022-08-21T04:00:15;8.90;;;8.10;;
9934;SDS011;5006;41.828;23.478;2022-08-21T04:01:20;7.75;;;7.07;;
9934;SDS011;5006;41.828;23.478;2022-08-21T04:02:26;7.47;;;6.78;;
9934;SDS011;5006;41.828;23.478;2022-08-21T04:03:31;7.28;;;6.57;;
9934;SDS011;5006;41.828;23.478;2022-08-21T04:04:39;8.30;;;7.07;;
9934;SDS011;5006;41.828;23.478;2022-08-21T04:05:45;7.80;;;6.85;;
9934;SDS011;5006;41.828;23.478;2022-08-21T04:06:50;6.68;;;5.90;;
9934;SDS011;5006;41.828;23.478;2022-08-21T04:07:56;7.88;;;6.80;;
9934;SDS011;5006;41.828;23.478;2022-08-21T04:09:02;6.70;;;6.03;;
9934;SDS011;5006;41.828;23.478;2022-08-21T04:10:07;6.38;;;5.53;;
9934;SDS011;5006;41.828;23.478;2022-08-21T04:11:15;6.57;;;5.85;;
9934;SDS011;5006;41.828;23.478;2022-08-21T04:12:21;6.93;;;6.07;;
9934;SDS011;5006;41.828;23.478;2022-08-21T04:13:27;6.93;;;6.32;;
9934;SDS011;5006;41.828;23.478;2022-08-21T04:14:32;6.70;;;6.10;;
9934;SDS011;5006;41.828;23.478;2022-08-21T04:15:38;7.38;;;6.50;;
9934;SDS011;5006;41.828;23.478;2022-08-21T04:16:43;8.00;;;7.15;;
9934;SDS011;5006;41.828;23.478;2022-08-21T04:17:49;8.23;;;7.43;;
9934;SDS011;5006;41.828;23.478;2022-08-21T04:18:55;8.20;;;7.38;;
9934;SDS011;5006;41.828;23.478;2022-08-21T04:20:00;9.55;;;8.57;;
9934;SDS011;5006;41.828;23.478;2022-08-21T04:21:06;8.20;;;7.47;;
9934;SDS011;5006;41.828;23.478;2022-08-21T04:22:15;10.25;;;8.02;;
9934;SDS011;5006;41.828;23.478;2022-08-21T04:23:21;9.15;;;8.00;;
9934;SDS011;5006;41.828;23.478;2022-08-21T04:24:27;10.15;;;9.00;;
9934;SDS011;5006;41.828;23.478;2022-08-21T04:25:32;10.48;;;8.43;;
9934;SDS011;5006;41.828;23.478;2022-08-21T04:26:39;10.35;;;9.35;;
9934;SDS011;5006;41.828;23.478;2022-08-21T04:27:45;9.43;;;8.52;;
9934;SDS011;5006;41.828;23.478;2022-08-21T04:28:50;9.85;;;8.95;;
9934;SDS011;5006;41.828;23.478;2022-08-21T04:29:56;10.07;;;8.75;;
9934;SDS011;5006;41.828;23.478;2022-08-21T04:31:01;9.63;;;8.60;;
9934;SDS011;5006;41.828;23.478;2022-08-21T04:32:07;10.20;;;8.68;;
9934;SDS011;5006;41.828;23.478;2022-08-21T04:33:12;10.07;;;9.07;;
9934;SDS011;5006;41.828;23.478;2022-08-21T04:34:19;9.50;;;8.55;;
9934;SDS011;5006;41.828;23.478;2022-08-21T04:35:25;9.70;;;8.75;;
9934;SDS011;5006;41.828;23.478;2022-08-21T04:36:33;9.88;;;8.73;;
9934;SDS011;5006;41.828;23.478;2022-08-21T04:37:39;9.50;;;8.50;;
9934;SDS011;5006;41.828;23.478;2022-08-21T04:38:44;9.93;;;8.63;;
9934;SDS011;5006;41.828;23.478;2022-08-21T04:39:50;9.30;;;8.40;;
9934;SDS011;5006;41.828;23.478;2022-08-21T04:40:55;9.73;;;8.73;;
9934;SDS011;5006;41.828;23.478;2022-08-21T04:42:02;9.77;;;8.80;;
9934;SDS011;5006;41.828;23.478;2022-08-21T04:43:09;10.30;;;8.63;;
9934;SDS011;5006;41.828;23.478;2022-08-21T04:44:16;11.52;;;8.82;;
9934;SDS011;5006;41.828;23.478;2022-08-21T04:45:23;9.63;;;8.50;;
9934;SDS011;5006;41.828;23.478;2022-08-21T04:46:31;9.75;;;8.60;;
9934;SDS011;5006;41.828;23.478;2022-08-21T04:47:35;10.15;;;8.20;;
9934;SDS011;5006;41.828;23.478;2022-08-21T04:48:41;8.65;;;7.75;;
9934;SDS011;5006;41.828;23.478;2022-08-21T04:49:46;9.60;;;8.45;;
9934;SDS011;5006;41.828;23.478;2022-08-21T04:50:53;8.90;;;7.95;;
9934;SDS011;5006;41.828;23.478;2022-08-21T04:52:01;9.27;;;8.27;;
9934;SDS011;5006;41.828;23.478;2022-08-21T04:53:08;9.65;;;8.65;;
9934;SDS011;5006;41.828;23.478;2022-08-21T04:54:18;8.98;;;7.60;;
9934;SDS011;5006;41.828;23.478;2022-08-21T04:55:27;14.80;;;8.27;;
9934;SDS011;5006;41.828;23.478;2022-08-21T04:56:33;9.82;;;7.68;;
9934;SDS011;5006;41.828;23.478;2022-08-21T04:57:46;9.90;;;8.30;;
9934;SDS011;5006;41.828;23.478;2022-08-21T04:58:51;9.68;;;7.82;;
9934;SDS011;5006;41.828;23.478;2022-08-21T04:59:58;9.85;;;8.13;;
9934;SDS011;5006;41.828;23.478;2022-08-21T05:01:04;9.07;;;8.00;;
9934;SDS011;5006;41.828;23.478;2022-08-21T05:02:12;8.73;;;7.53;;
9934;SDS011;5006;41.828;23.478;2022-08-21T05:03:17;10.32;;;8.07;;
9934;SDS011;5006;41.828;23.478;2022-08-21T05:04:24;9.10;;;7.97;;
9934;SDS011;5006;41.828;23.478;2022-08-21T05:05:34;9.80;;;7.90;;
9934;SDS011;5006;41.828;23.478;2022-08-21T05:06:40;10.65;;;7.68;;
9934;SDS011;5006;41.828;23.478;2022-08-21T05:07:48;8.93;;;8.02;;
9934;SDS011;5006;41.828;23.478;2022-08-21T05:08:54;8.60;;;7.80;;
9934;SDS011;5006;41.828;23.478;2022-08-21T05:10:01;8.85;;;7.65;;
9934;SDS011;5006;41.828;23.478;2022-08-21T05:11:07;9.30;;;7.75;;
9934;SDS011;5006;41.828;23.478;2022-08-21T05:12:13;7.80;;;7.10;;
9934;SDS011;5006;41.828;23.478;2022-08-21T05:13:20;8.38;;;7.57;;
9934;SDS011;5006;41.828;23.478;2022-08-21T05:14:26;7.47;;;6.63;;
9934;SDS011;5006;41.828;23.478;2022-08-21T05:15:31;7.85;;;6.90;;
9934;SDS011;5006;41.828;23.478;2022-08-21T05:16:37;7.10;;;6.40;;
9934;SDS011;5006;41.828;23.478;2022-08-21T05:17:41;7.25;;;6.55;;
9934;SDS011;5006;41.828;23.478;2022-08-21T05:18:48;7.90;;;6.18;;
9934;SDS011;5006;41.828;23.478;2022-08-21T05:19:54;7.25;;;5.95;;
9934;SDS011;5006;41.828;23.478;2022-08-21T05:21:00;9.02;;;6.95;;
9934;SDS011;5006;41.828;23.478;2022-08-21T05:22:05;7.47;;;6.10;;
9934;SDS011;5006;41.828;23.478;2022-08-21T05:23:12;9.38;;;6.65;;
9934;SDS011;5006;41.828;23.478;2022-08-21T05:24:18;8.23;;;6.53;;
9934;SDS011;5006;41.828;23.478;2022-08-21T05:25:23;8.52;;;6.80;;
9934;SDS011;5006;41.828;23.478;2022-08-21T05:26:29;7.07;;;6.38;;
9934;SDS011;5006;41.828;23.478;2022-08-21T05:27:35;6.40;;;5.80;;
9934;SDS011;5006;41.828;23.478;2022-08-21T05:28:41;8.85;;;5.95;;
9934;SDS011;5006;41.828;23.478;2022-08-21T05:29:47;6.40;;;5.80;;
9934;SDS011;5006;41.828;23.478;2022-08-21T05:30:53;8.50;;;6.20;;
9934;SDS011;5006;41.828;23.478;2022-08-21T05:31:59;6.63;;;6.00;;
9934;SDS011;5006;41.828;23.478;2022-08-21T05:33:04;5.80;;;5.30;;
9934;SDS011;5006;41.828;23.478;2022-08-21T05:34:11;7.63;;;5.40;;
9934;SDS011;5006;41.828;23.478;2022-08-21T05:35:16;5.90;;;5.10;;
9934;SDS011;5006;41.828;23.478;2022-08-21T05:36:21;5.07;;;4.47;;
9934;SDS011;5006;41.828;23.478;2022-08-21T05:37:28;4.85;;;4.35;;
9934;SDS011;5006;41.828;23.478;2022-08-21T05:38:32;4.20;;;3.80;;
9934;SDS011;5006;41.828;23.478;2022-08-21T05:39:38;4.18;;;3.42;;
9934;SDS011;5006;41.828;23.478;2022-08-21T05:40:44;4.63;;;3.70;;
9934;SDS011;5006;41.828;23.478;2022-08-21T05:41:50;4.45;;;3.80;;
9934;SDS011;5006;41.828;23.478;2022-08-21T05:42:55;5.70;;;3.70;;
9934;SDS011;5006;41.828;23.478;2022-08-21T05:44:04;5.28;;;3.85;;
9934;SDS011;5006;41.828;23.478;2022-08-21T05:45:09;4.38;;;3.70;;
9934;SDS011;5006;41.828;23.478;2022-08-21T05:46:15;4.20;;;3.40;;
9934;SDS011;5006;41.828;23.478;2022-08-21T05:47:20;3.85;;;3.40;;
9934;SDS011;5006;41.828;23.478;2022-08-21T05:49:49;4.30;;;3.38;;
9934;SDS011;5006;41.828;23.478;2022-08-21T05:50:54;5.70;;;3.38;;
9934;SDS011;5006;41.828;23.478;2022-08-21T05:52:00;4.18;;;3.75;;
9934;SDS011;5006;41.828;23.478;2022-08-21T05:53:06;5.35;;;4.85;;
9934;SDS011;5006;41.828;23.478;2022-08-21T05:54:12;5.53;;;4.93;;
9934;SDS011;5006;41.828;23.478;2022-08-21T05:55:16;6.28;;;4.55;;
9934;SDS011;5006;41.828;23.478;2022-08-21T05:56:22;5.05;;;4.55;;
9934;SDS011;5006;41.828;23.478;2022-08-21T05:57:27;5.30;;;4.20;;
9934;SDS011;5006;41.828;23.478;2022-08-21T05:58:33;4.80;;;4.40;;
9934;SDS011;5006;41.828;23.478;2022-08-21T05:59:39;5.00;;;3.88;;
9934;SDS011;5006;41.828;23.478;2022-08-21T06:00:46;3.80;;;3.50;;
9934;SDS011;5006;41.828;23.478;2022-08-21T06:01:52;4.25;;;3.40;;
9934;SDS011;5006;41.828;23.478;2022-08-21T06:02:58;3.35;;;3.05;;
9934;SDS011;5006;41.828;23.478;2022-08-21T06:04:03;3.50;;;3.20;;
9934;SDS011;5006;41.828;23.478;2022-08-21T06:05:10;3.50;;;3.17;;
9934;SDS011;5006;41.828;23.478;2022-08-21T06:06:15;6.22;;;4.07;;
9934;SDS011;5006;41.828;23.478;2022-08-21T06:07:21;7.25;;;4.30;;
9934;SDS011;5006;41.828;23.478;2022-08-21T06:08:26;4.97;;;4.47;;
9934;SDS011;5006;41.828;23.478;2022-08-21T06:09:33;6.40;;;5.05;;
9934;SDS011;5006;41.828;23.478;2022-08-21T06:10:37;7.18;;;5.40;;
9934;SDS011;5006;41.828;23.478;2022-08-21T06:11:43;6.13;;;5.18;;
9934;SDS011;5006;41.828;23.478;2022-08-21T06:12:52;7.15;;;4.85;;
9934;SDS011;5006;41.828;23.478;2022-08-21T06:13:59;13.07;;;11.52;;
9934;SDS011;5006;41.828;23.478;2022-08-21T06:15:07;13.27;;;11.50;;
9934;SDS011;5006;41.828;23.478;2022-08-21T06:16:13;14.15;;;12.73;;
9934;SDS011;5006;41.828;23.478;2022-08-21T06:17:21;14.93;;;13.18;;
9934;SDS011;5006;41.828;23.478;2022-08-21T06:18:27;14.40;;;12.90;;
9934;SDS011;5006;41.828;23.478;2022-08-21T06:19:32;15.25;;;13.65;;
9934;SDS011;5006;41.828;23.478;2022-08-21T06:20:39;19.33;;;17.33;;
9934;SDS011;5006;41.828;23.478;2022-08-21T06:21:45;19.90;;;17.90;;
9934;SDS011;5006;41.828;23.478;2022-08-21T06:22:50;19.13;;;17.23;;
9934;SDS011;5006;41.828;23.478;2022-08-21T06:23:56;18.95;;;17.02;;
9934;SDS011;5006;41.828;23.478;2022-08-21T06:25:01;21.45;;;19.25;;
9934;SDS011;5006;41.828;23.478;2022-08-21T06:26:07;20.30;;;17.45;;
9934;SDS011;5006;41.828;23.478;2022-08-21T06:27:12;19.90;;;17.80;;
9934;SDS011;5006;41.828;23.478;2022-08-21T06:28:19;18.17;;;16.38;;
9934;SDS011;5006;41.828;23.478;2022-08-21T06:29:24;17.98;;;16.17;;
9934;SDS011;5006;41.828;23.478;2022-08-21T06:30:31;17.85;;;15.77;;
9934;SDS011;5006;41.828;23.478;2022-08-21T06:31:36;17.73;;;16.02;;
9934;SDS011;5006;41.828;23.478;2022-08-21T06:32:45;18.27;;;16.48;;
9934;SDS011;5006;41.828;23.478;2022-08-21T06:33:50;15.88;;;14.02;;
9934;SDS011;5006;41.828;23.478;2022-08-21T06:34:56;16.05;;;14.30;;
9934;SDS011;5006;41.828;23.478;2022-08-21T06:36:00;17.88;;;16.10;;
9934;SDS011;5006;41.828;23.478;2022-08-21T06:37:07;17.42;;;15.63;;
9934;SDS011;5006;41.828;23.478;2022-08-21T06:38:12;15.88;;;14.25;;
9934;SDS011;5006;41.828;23.478;2022-08-21T06:39:18;13.32;;;11.90;;
9934;SDS011;5006;41.828;23.478;2022-08-21T06:40:24;13.60;;;12.15;;
9934;SDS011;5006;41.828;23.478;2022-08-21T06:41:32;11.68;;;10.63;;
9934;SDS011;5006;41.828;23.478;2022-08-21T06:42:38;12.45;;;11.25;;
9934;SDS011;5006;41.828;23.478;2022-08-21T06:43:43;13.13;;;11.73;;
9934;SDS011;5006;41.828;23.478;2022-08-21T06:44:49;17.90;;;10.98;;